Time;durP1;ratioP1;P1;durP2;ratioP2;P2;SDS_P1;SDS_P2;PMS_P1;PMS_P2;Temp;Humidity;BMP_temperature;BMP_pressure;BME280_temperature;BME280_humidity;BME280_pressure;Samples;Min_cycle;Max_cycle;Signal;HPM_P1;HPM_P2
2021/06/14 00:01:15;;;;;;;7.73;5.30;;;12.90;99.90;;;;;;5087559;28;20512;-68
2021/06/14 00:03:42;;;;;;;8.10;5.07;;;12.80;99.90;;;;;;5088493;28;20481;-67
2021/06/14 00:06:09;;;;;;;6.73;4.70;;;12.70;99.90;;;;;;5088391;28;20525;-68
2021/06/14 00:08:40;;;;;;;5.77;5.07;;;12.80;99.90;;;;;;5091011;28;20507;-68
2021/06/14 00:11:08;;;;;;;8.10;5.03;;;12.80;99.90;;;;;;5091889;28;20534;-68
2021/06/14 00:13:38;;;;;;;7.53;4.70;;;12.90;99.90;;;;;;5092203;28;20536;-68
2021/06/14 00:16:05;;;;;;;8.70;5.37;;;12.90;99.90;;;;;;5092147;28;21050;-68
2021/06/14 00:18:34;;;;;;;11.03;5.33;;;12.90;99.90;;;;;;5091707;28;20469;-67
2021/06/14 00:21:04;;;;;;;8.03;4.87;;;12.80;99.90;;;;;;5091356;28;20445;-66
2021/06/14 00:23:32;;;;;;;7.60;5.20;;;12.70;99.90;;;;;;5091236;28;20521;-67
2021/06/14 00:26:00;;;;;;;7.23;5.87;;;12.60;99.90;;;;;;5091442;28;20468;-66
2021/06/14 00:28:27;;;;;;;6.80;5.10;;;12.70;99.90;;;;;;5091168;28;20588;-68
2021/06/14 00:30:56;;;;;;;5.67;5.07;;;12.60;99.90;;;;;;5091108;28;20569;-66
2021/06/14 00:33:23;;;;;;;8.73;4.63;;;12.60;99.90;;;;;;5090616;28;20446;-67
2021/06/14 00:35:51;;;;;;;7.07;4.40;;;12.60;99.90;;;;;;5092608;28;20458;-68
2021/06/14 00:38:18;;;;;;;7.97;5.20;;;12.60;99.90;;;;;;5092847;28;20469;-68
2021/06/14 00:40:45;;;;;;;7.00;4.70;;;12.60;99.90;;;;;;5092822;28;20469;-68
2021/06/14 00:43:13;;;;;;;7.00;5.10;;;12.70;99.90;;;;;;5092697;28;20443;-67
2021/06/14 00:45:42;;;;;;;6.07;5.30;;;12.60;99.90;;;;;;5092140;28;20478;-67
2021/06/14 00:48:11;;;;;;;5.70;4.80;;;12.70;99.90;;;;;;5092796;28;20457;-68
2021/06/14 00:50:41;;;;;;;6.07;4.77;;;12.70;99.90;;;;;;5092544;28;21070;-68
2021/06/14 00:53:12;;;;;;;7.07;4.80;;;12.70;99.90;;;;;;5092525;28;20450;-67
2021/06/14 00:55:39;;;;;;;7.57;5.17;;;12.60;99.90;;;;;;5092463;28;20983;-68
2021/06/14 00:58:06;;;;;;;7.27;4.90;;;12.50;99.90;;;;;;5092868;28;20450;-68
2021/06/14 01:00:33;;;;;;;7.63;5.70;;;12.40;99.90;;;;;;5092093;28;20891;-67
2021/06/14 01:03:00;;;;;;;8.73;5.60;;;12.40;99.90;;;;;;5092389;28;20948;-68
2021/06/14 01:05:31;;;;;;;8.37;5.33;;;12.30;99.90;;;;;;5092029;28;20470;-68
2021/06/14 01:07:57;;;;;;;6.10;5.23;;;12.30;99.90;;;;;;5092367;28;20449;-67
2021/06/14 01:10:25;;;;;;;8.73;5.60;;;12.30;99.90;;;;;;5091537;28;20442;-67
2021/06/14 01:13:07;;;;;;;8.37;4.70;;;12.20;99.90;;;;;;5092003;28;21010;-68
2021/06/14 01:15:41;;;;;;;7.40;5.20;;;12.20;99.90;;;;;;5091931;28;20462;-68
2021/06/14 01:18:12;;;;;;;6.70;5.20;;;12.10;99.90;;;;;;5091829;28;20446;-67
2021/06/14 01:21:08;;;;;;;6.70;5.17;;;12.10;99.90;;;;;;5091065;28;20469;-68
2021/06/14 01:24:02;;;;;;;9.53;5.63;;;12.00;99.90;;;;;;5091896;28;20958;-67
2021/06/14 01:26:36;;;;;;;6.57;4.57;;;11.90;99.90;;;;;;5091962;28;20521;-67
2021/06/14 01:29:06;;;;;;;8.00;5.50;;;11.90;99.90;;;;;;5091601;28;20547;-65
2021/06/14 01:31:37;;;;;;;8.00;5.27;;;12.00;99.90;;;;;;5091479;28;20517;-66
2021/06/14 01:34:05;;;;;;;9.30;5.80;;;11.90;99.90;;;;;;5092125;28;21009;-66
2021/06/14 01:36:34;;;;;;;6.30;5.57;;;11.80;99.90;;;;;;5091745;28;20446;-67
2021/06/14 01:39:05;;;;;;;6.70;5.37;;;11.80;99.90;;;;;;5091306;28;20537;-67
2021/06/14 01:41:33;;;;;;;6.13;4.80;;;11.80;99.90;;;;;;5091605;28;20533;-67
2021/06/14 01:44:02;;;;;;;6.80;5.40;;;11.90;99.90;;;;;;5091288;28;20500;-67
2021/06/14 01:46:33;;;;;;;7.40;5.57;;;11.80;99.90;;;;;;5091617;28;20449;-67
2021/06/14 01:49:01;;;;;;;5.33;4.80;;;11.80;99.90;;;;;;5091318;28;20525;-67
2021/06/14 01:51:31;;;;;;;6.73;5.50;;;11.80;99.90;;;;;;5091563;28;20481;-67
2021/06/14 01:54:06;;;;;;;8.17;5.70;;;11.70;99.90;;;;;;5091445;28;20948;-67
2021/06/14 01:56:34;;;;;;;7.67;5.73;;;11.60;99.90;;;;;;5091396;28;21106;-67
2021/06/14 01:59:02;;;;;;;7.80;5.80;;;11.50;99.90;;;;;;5091009;28;20450;-67
2021/06/14 02:01:32;;;;;;;6.93;5.77;;;11.40;99.90;;;;;;5091461;28;20476;-67
2021/06/14 02:04:00;;;;;;;7.97;6.40;;;11.40;99.90;;;;;;5091454;28;20446;-67
2021/06/14 02:06:29;;;;;;;8.63;6.73;;;11.40;99.90;;;;;;5091900;28;20529;-67
2021/06/14 02:08:58;;;;;;;10.80;7.57;;;11.30;99.90;;;;;;5091255;28;20827;-66
2021/06/14 02:11:26;;;;;;;9.63;8.20;;;11.40;99.90;;;;;;5091129;28;20477;-67
2021/06/14 02:13:54;;;;;;;9.37;6.50;;;11.40;99.90;;;;;;5091286;28;20450;-68
2021/06/14 02:16:22;;;;;;;13.00;7.80;;;11.50;99.90;;;;;;5091361;28;20545;-67
2021/06/14 02:18:51;;;;;;;8.23;6.83;;;11.40;99.90;;;;;;5090496;28;20438;-67
2021/06/14 02:21:20;;;;;;;8.30;5.63;;;11.50;99.90;;;;;;5089673;28;20447;-68
2021/06/14 02:23:47;;;;;;;7.70;6.60;;;11.50;99.90;;;;;;5090456;28;20452;-67
2021/06/14 02:26:14;;;;;;;8.63;6.90;;;11.50;99.90;;;;;;5090611;28;20750;-67
2021/06/14 02:28:41;;;;;;;8.23;6.50;;;11.40;99.90;;;;;;5090489;28;20453;-67
2021/06/14 02:31:09;;;;;;;14.13;9.70;;;11.40;99.90;;;;;;5090073;28;20496;-67
2021/06/14 02:33:36;;;;;;;8.03;6.17;;;11.30;99.90;;;;;;5090309;28;21213;-66
2021/06/14 02:36:05;;;;;;;10.10;7.23;;;11.30;99.90;;;;;;5090455;28;20468;-66
2021/06/14 02:38:32;;;;;;;8.30;6.37;;;11.30;99.90;;;;;;5090514;28;20453;-66
2021/06/14 02:41:00;;;;;;;8.50;7.20;;;11.30;99.90;;;;;;5090156;28;20446;-67
2021/06/14 02:43:27;;;;;;;7.67;5.97;;;11.30;99.90;;;;;;5090164;28;20565;-67
2021/06/14 02:45:54;;;;;;;9.97;7.43;;;11.20;99.90;;;;;;5090349;28;20554;-67
2021/06/14 02:48:23;;;;;;;8.37;6.80;;;11.20;99.90;;;;;;5089948;28;20438;-67
2021/06/14 02:50:51;;;;;;;12.47;7.80;;;11.30;99.90;;;;;;5089867;28;20534;-67
2021/06/14 02:53:23;;;;;;;14.43;7.60;;;11.20;99.90;;;;;;5090001;28;21011;-67
2021/06/14 02:55:56;;;;;;;12.27;8.03;;;11.10;99.90;;;;;;5090243;28;20897;-67
2021/06/14 02:58:28;;;;;;;11.53;7.63;;;11.10;99.90;;;;;;5089955;28;20966;-66
2021/06/14 03:00:56;;;;;;;8.60;7.03;;;11.00;99.90;;;;;;5089949;28;20874;-67
2021/06/14 03:03:23;;;;;;;8.57;7.10;;;11.00;99.90;;;;;;5089692;28;20450;-67
2021/06/14 03:05:50;;;;;;;13.37;7.53;;;10.90;99.90;;;;;;5090250;28;20925;-67
2021/06/14 03:08:19;;;;;;;9.33;7.07;;;10.90;99.90;;;;;;5089961;28;20537;-66
2021/06/14 03:10:47;;;;;;;13.00;7.13;;;10.90;99.90;;;;;;5089686;28;20536;-67
2021/06/14 03:13:15;;;;;;;8.80;7.00;;;10.90;99.90;;;;;;5090018;28;20474;-66
2021/06/14 03:15:43;;;;;;;7.97;6.50;;;10.90;99.90;;;;;;5090019;28;20466;-66
2021/06/14 03:18:11;;;;;;;11.90;6.80;;;10.90;99.90;;;;;;5090101;28;20457;-66
2021/06/14 03:20:40;;;;;;;8.23;7.07;;;10.80;99.90;;;;;;5089958;28;20529;-66
2021/06/14 03:23:08;;;;;;;9.70;7.37;;;10.80;99.90;;;;;;5090280;28;20442;-67
2021/06/14 03:25:38;;;;;;;10.03;8.37;;;10.80;99.90;;;;;;5089904;28;20549;-67
2021/06/14 03:28:07;;;;;;;10.00;7.33;;;10.80;99.90;;;;;;5090081;28;20438;-67
2021/06/14 03:30:35;;;;;;;8.80;7.20;;;10.70;99.90;;;;;;5089726;28;20525;-67
2021/06/14 03:33:07;;;;;;;10.27;7.50;;;10.80;99.90;;;;;;5089958;28;20490;-67
2021/06/14 03:35:34;;;;;;;11.13;7.10;;;10.80;99.90;;;;;;5090069;28;20462;-67
2021/06/14 03:38:01;;;;;;;9.30;7.43;;;10.90;99.90;;;;;;5090088;28;20962;-67
2021/06/14 03:40:28;;;;;;;8.20;6.30;;;10.90;99.90;;;;;;5089831;28;20452;-67
2021/06/14 03:43:01;;;;;;;10.57;7.20;;;10.90;99.90;;;;;;5091675;28;20977;-66
2021/06/14 03:45:29;;;;;;;11.33;7.50;;;10.90;99.90;;;;;;5093762;28;20480;-67
2021/06/14 03:47:56;;;;;;;8.20;6.87;;;10.90;99.90;;;;;;5094024;28;20452;-66
2021/06/14 03:50:23;;;;;;;8.33;7.07;;;10.90;99.90;;;;;;5093600;28;20530;-66
2021/06/14 03:52:50;;;;;;;8.20;6.50;;;11.00;99.90;;;;;;5093890;28;20477;-67
2021/06/14 03:55:18;;;;;;;8.10;6.50;;;11.00;99.90;;;;;;5093515;28;20840;-67
2021/06/14 03:57:45;;;;;;;11.57;6.70;;;11.00;99.90;;;;;;5093461;28;20450;-66
2021/06/14 04:00:16;;;;;;;10.10;7.00;;;11.00;99.90;;;;;;5093401;28;20593;-66
2021/06/14 04:02:43;;;;;;;7.50;6.50;;;11.10;99.90;;;;;;5093531;28;20440;-67
2021/06/14 04:05:11;;;;;;;9.00;6.77;;;11.20;99.90;;;;;;5093573;28;20553;-66
2021/06/14 04:07:38;;;;;;;13.47;8.40;;;11.20;99.90;;;;;;5093178;28;20604;-67
2021/06/14 04:10:06;;;;;;;11.00;7.33;;;11.30;99.90;;;;;;5092936;28;20469;-67
2021/06/14 04:12:34;;;;;;;11.63;7.87;;;11.30;99.90;;;;;;5093258;28;20568;-67
2021/06/14 04:15:00;;;;;;;11.43;7.60;;;11.40;99.90;;;;;;5093210;28;20460;-67
2021/06/14 04:17:29;;;;;;;10.37;6.90;;;11.50;99.90;;;;;;5093010;28;20537;-68
2021/06/14 04:19:56;;;;;;;9.73;7.40;;;11.50;99.90;;;;;;5092918;28;20533;-67
2021/06/14 04:22:23;;;;;;;14.30;9.20;;;11.60;99.90;;;;;;5092748;28;20531;-69
2021/06/14 04:24:50;;;;;;;9.50;6.63;;;11.70;99.90;;;;;;5092557;28;20477;-67
2021/06/14 04:27:17;;;;;;;11.77;7.00;;;11.70;99.90;;;;;;5092731;28;20450;-68
2021/06/14 04:29:44;;;;;;;9.23;6.93;;;11.70;99.90;;;;;;5092657;28;20864;-67
2021/06/14 04:32:12;;;;;;;7.77;6.50;;;11.70;99.90;;;;;;5092692;28;20560;-69
2021/06/14 04:34:40;;;;;;;9.03;6.80;;;11.90;99.90;;;;;;5092578;28;20554;-67
2021/06/14 04:37:07;;;;;;;9.93;6.67;;;11.90;99.90;;;;;;5092836;28;20451;-67
2021/06/14 04:39:35;;;;;;;8.20;7.10;;;12.00;99.90;;;;;;5092267;28;20541;-68
2021/06/14 04:42:02;;;;;;;9.60;5.67;;;12.10;99.90;;;;;;5092600;28;20536;-66
2021/06/14 04:44:29;;;;;;;6.93;6.23;;;12.20;99.90;;;;;;5092422;28;21034;-66
2021/06/14 04:46:55;;;;;;;7.63;6.83;;;12.20;99.90;;;;;;5092518;28;20442;-66
2021/06/14 04:49:22;;;;;;;8.27;6.20;;;12.30;99.90;;;;;;5091864;28;20967;-67
2021/06/14 04:51:52;;;;;;;12.27;6.87;;;12.40;99.90;;;;;;5092319;28;20533;-67
2021/06/14 04:54:19;;;;;;;7.80;6.33;;;12.50;99.90;;;;;;5092424;28;20470;-67
2021/06/14 04:56:46;;;;;;;6.80;6.10;;;12.50;99.90;;;;;;5092155;28;20485;-66
2021/06/14 04:59:12;;;;;;;7.40;5.93;;;12.60;99.90;;;;;;5092194;28;20457;-67
2021/06/14 05:01:39;;;;;;;11.57;6.27;;;12.70;99.90;;;;;;5089425;28;20822;-67
2021/06/14 05:04:06;;;;;;;10.93;6.47;;;12.70;99.90;;;;;;5076409;28;21003;-67
2021/06/14 05:06:33;;;;;;;9.03;6.43;;;12.80;99.90;;;;;;5070515;28;20447;-67
2021/06/14 05:09:01;;;;;;;9.00;5.80;;;12.90;99.90;;;;;;5072133;28;20478;-68
2021/06/14 05:11:28;;;;;;;9.30;6.07;;;13.00;99.90;;;;;;5071805;28;20454;-67
2021/06/14 05:13:55;;;;;;;9.87;5.53;;;13.10;99.90;;;;;;5071240;28;20478;-67
2021/06/14 05:16:22;;;;;;;8.50;5.33;;;13.30;99.90;;;;;;5071357;28;20483;-67
2021/06/14 05:18:48;;;;;;;17.57;6.73;;;13.40;99.90;;;;;;5071579;28;20486;-68
2021/06/14 05:21:15;;;;;;;7.40;5.47;;;13.50;99.90;;;;;;5071961;28;20526;-67
2021/06/14 05:23:42;;;;;;;10.87;6.93;;;13.60;99.90;;;;;;5071479;28;20435;-67
2021/06/14 05:26:11;;;;;;;9.20;6.43;;;13.60;99.90;;;;;;5071723;28;20453;-67
2021/06/14 05:28:38;;;;;;;8.93;5.80;;;13.70;99.90;;;;;;5071445;28;20538;-68
2021/06/14 05:31:05;;;;;;;10.40;5.83;;;13.80;99.90;;;;;;5071602;28;20449;-67
2021/06/14 05:33:32;;;;;;;6.60;5.30;;;13.80;99.90;;;;;;5071434;28;20479;-67
2021/06/14 05:35:59;;;;;;;9.73;6.20;;;13.90;99.90;;;;;;5071928;28;20467;-68
2021/06/14 05:38:26;;;;;;;9.13;6.13;;;14.00;99.90;;;;;;5071695;28;20443;-67
2021/06/14 05:40:53;;;;;;;10.60;5.50;;;14.10;99.90;;;;;;5071399;28;21032;-68
2021/06/14 05:43:21;;;;;;;6.63;5.33;;;14.20;99.90;;;;;;5071565;28;20826;-67
2021/06/14 05:45:48;;;;;;;6.67;4.80;;;14.40;99.90;;;;;;5071440;28;20829;-67
2021/06/14 05:48:15;;;;;;;7.83;5.43;;;14.50;99.90;;;;;;5071914;28;20451;-67
2021/06/14 05:50:42;;;;;;;7.87;6.07;;;14.70;99.90;;;;;;5071178;28;21126;-68
2021/06/14 05:53:09;;;;;;;9.10;5.10;;;14.80;99.90;;;;;;5071702;28;20558;-68
2021/06/14 05:55:36;;;;;;;7.07;4.87;;;14.90;99.90;;;;;;5071331;28;20494;-68
2021/06/14 05:58:04;;;;;;;6.97;5.47;;;15.10;99.90;;;;;;5071074;28;21003;-68
2021/06/14 06:00:33;;;;;;;5.60;4.63;;;15.20;99.90;;;;;;5070700;28;20453;-67
2021/06/14 06:03:00;;;;;;;7.00;4.80;;;15.40;99.90;;;;;;5071379;28;20455;-68
2021/06/14 06:05:27;;;;;;;5.33;4.60;;;15.50;99.90;;;;;;5070658;28;20459;-67
2021/06/14 06:07:54;;;;;;;6.17;4.63;;;15.60;99.90;;;;;;5071264;28;20892;-68
2021/06/14 06:10:22;;;;;;;7.03;4.77;;;15.70;99.90;;;;;;5070473;28;20811;-68
2021/06/14 06:12:48;;;;;;;8.40;4.87;;;15.80;99.90;;;;;;5070807;28;20856;-68
2021/06/14 06:15:18;;;;;;;7.20;4.80;;;15.90;99.90;;;;;;5070778;28;20549;-67
2021/06/14 06:17:46;;;;;;;8.20;4.70;;;16.00;99.90;;;;;;5070794;28;20474;-66
2021/06/14 06:20:15;;;;;;;7.07;4.23;;;16.10;99.90;;;;;;5070347;28;20443;-67
2021/06/14 06:22:42;;;;;;;7.20;4.10;;;16.20;99.90;;;;;;5070687;28;20448;-66
2021/06/14 06:25:12;;;;;;;7.43;4.10;;;16.30;99.90;;;;;;5070359;28;20478;-67
2021/06/14 06:27:38;;;;;;;6.30;3.83;;;16.50;99.90;;;;;;5070617;28;20447;-66
2021/06/14 06:30:07;;;;;;;6.40;3.87;;;16.60;99.90;;;;;;5070423;28;20449;-68
2021/06/14 06:32:35;;;;;;;6.33;4.30;;;16.70;99.90;;;;;;5070524;28;20447;-67
2021/06/14 06:35:04;;;;;;;5.50;4.10;;;16.80;99.90;;;;;;5070453;28;20561;-68
2021/06/14 06:37:31;;;;;;;5.73;3.60;;;16.80;99.90;;;;;;5070195;28;21081;-67
2021/06/14 06:39:58;;;;;;;5.80;4.20;;;17.00;99.90;;;;;;5069816;28;20449;-66
2021/06/14 06:42:25;;;;;;;8.10;4.30;;;17.10;99.90;;;;;;5069871;28;20443;-67
2021/06/14 06:44:52;;;;;;;6.53;4.80;;;17.20;99.90;;;;;;5069788;28;20478;-67
2021/06/14 06:47:19;;;;;;;7.00;4.57;;;17.20;99.90;;;;;;5069946;28;20870;-67
2021/06/14 06:49:46;;;;;;;7.10;3.70;;;17.40;99.90;;;;;;5069586;28;20940;-67
2021/06/14 06:52:15;;;;;;;6.83;4.40;;;17.50;99.90;;;;;;5070118;28;20446;-67
2021/06/14 06:54:42;;;;;;;7.47;3.70;;;17.70;99.90;;;;;;5071344;28;20536;-66
2021/06/14 06:57:09;;;;;;;7.13;4.00;;;17.80;99.90;;;;;;5069916;28;20482;-66
2021/06/14 06:59:36;;;;;;;5.23;3.83;;;17.90;99.90;;;;;;5069710;28;20447;-66
2021/06/14 07:02:04;;;;;;;7.90;3.60;;;18.00;99.90;;;;;;5070121;28;20534;-66
2021/06/14 07:04:30;;;;;;;7.47;4.67;;;18.20;99.90;;;;;;5069716;28;21010;-66
2021/06/14 07:06:57;;;;;;;5.83;3.73;;;18.20;99.90;;;;;;5069617;28;20965;-66
2021/06/14 07:09:26;;;;;;;5.20;4.30;;;18.30;99.90;;;;;;5069220;28;20534;-66
2021/06/14 07:11:52;;;;;;;7.63;3.40;;;18.40;99.90;;;;;;5069938;28;20519;-66
2021/06/14 07:14:19;;;;;;;4.60;3.90;;;18.60;99.90;;;;;;5069487;28;20597;-66
2021/06/14 07:16:46;;;;;;;6.57;4.00;;;18.70;99.90;;;;;;5069579;28;20945;-66
2021/06/14 07:19:13;;;;;;;8.53;4.00;;;18.80;99.90;;;;;;5073169;28;20483;-66
2021/06/14 07:21:40;;;;;;;6.70;4.20;;;18.90;99.90;;;;;;5073470;28;20522;-66
2021/06/14 07:24:07;;;;;;;4.67;3.67;;;19.00;99.90;;;;;;5073664;28;20467;-66
2021/06/14 07:26:36;;;;;;;6.73;3.80;;;19.10;99.90;;;;;;5073611;28;20454;-66
2021/06/14 07:29:04;;;;;;;6.73;3.80;;;19.20;99.90;;;;;;5073281;28;20470;-66
2021/06/14 07:31:31;;;;;;;5.33;4.20;;;19.30;99.90;;;;;;5073707;28;20822;-67
2021/06/14 07:34:00;;;;;;;5.80;3.87;;;19.40;99.90;;;;;;5073447;28;20566;-67
2021/06/14 07:36:28;;;;;;;6.97;3.90;;;19.50;99.90;;;;;;5073691;28;20486;-67
2021/06/14 07:38:55;;;;;;;5.67;3.60;;;19.60;99.90;;;;;;5073758;28;20529;-66
2021/06/14 07:41:23;;;;;;;5.00;3.90;;;19.70;99.90;;;;;;5073856;28;20549;-65
2021/06/14 07:43:52;;;;;;;4.90;3.10;;;19.80;99.90;;;;;;5079163;28;20833;-66
2021/06/14 07:46:20;;;;;;;4.83;2.90;;;19.90;99.90;;;;;;5077436;28;20457;-66
2021/06/14 07:48:48;;;;;;;5.33;3.70;;;20.00;99.90;;;;;;5090201;28;20434;-66
2021/06/14 07:51:15;;;;;;;8.30;4.13;;;20.10;99.90;;;;;;5084602;28;20556;-67
2021/06/14 07:53:42;;;;;;;4.77;4.20;;;20.20;99.90;;;;;;5090674;28;20500;-67
2021/06/14 07:56:10;;;;;;;7.10;3.87;;;20.30;99.90;;;;;;5091222;28;20450;-66
2021/06/14 07:58:37;;;;;;;4.13;3.40;;;20.40;99.90;;;;;;5090758;28;20944;-67
2021/06/14 08:01:05;;;;;;;4.70;3.60;;;20.60;99.90;;;;;;5091202;28;20436;-66
2021/06/14 08:03:32;;;;;;;5.00;3.70;;;20.70;99.90;;;;;;5090754;28;20452;-67
2021/06/14 08:06:00;;;;;;;4.67;3.40;;;20.70;99.90;;;;;;5086152;28;20522;-66
2021/06/14 08:08:27;;;;;;;4.83;3.20;;;20.80;99.90;;;;;;5086624;28;20457;-67
2021/06/14 08:10:54;;;;;;;5.80;3.00;;;20.80;99.90;;;;;;5090554;28;20611;-67
2021/06/14 08:13:21;;;;;;;5.63;4.00;;;20.90;99.90;;;;;;5090640;28;20482;-66
2021/06/14 08:15:49;;;;;;;5.47;3.50;;;21.00;99.90;;;;;;5090922;28;20462;-66
2021/06/14 08:18:29;;;;;;;5.37;3.30;;;21.20;99.90;;;;;;5091160;28;20541;-67
2021/06/14 08:21:08;;;;;;;7.60;4.00;;;21.30;99.90;;;;;;5085570;28;20485;-67
2021/06/14 08:26:21;;;;;;;4.33;3.50;;;21.60;99.90;;;;;;5090340;28;20947;-65
2021/06/14 08:28:47;;;;;;;5.27;3.70;;;21.70;99.90;;;;;;5090469;28;20481;-66
2021/06/14 08:31:14;;;;;;;5.53;3.47;;;21.70;99.90;;;;;;5090787;28;20442;-66
2021/06/14 08:33:43;;;;;;;7.33;3.87;;;21.80;99.80;;;;;;5090747;28;20478;-66
2021/06/14 08:36:10;;;;;;;10.43;4.30;;;21.80;99.90;;;;;;5091117;28;20450;-66
2021/06/14 08:38:37;;;;;;;5.20;3.60;;;21.90;99.90;;;;;;5090487;28;20553;-66
2021/06/14 08:41:04;;;;;;;7.20;3.43;;;22.00;99.90;;;;;;5090833;28;20486;-66
2021/06/14 08:43:31;;;;;;;5.30;3.30;;;22.10;99.40;;;;;;5090840;28;20549;-66
2021/06/14 08:45:58;;;;;;;6.13;3.50;;;22.20;99.70;;;;;;5091067;28;20466;-66
2021/06/14 08:48:26;;;;;;;8.23;3.90;;;22.30;99.90;;;;;;5090508;28;20549;-65
2021/06/14 08:50:54;;;;;;;5.23;3.70;;;22.40;98.20;;;;;;5090259;28;20442;-66
2021/06/14 08:53:23;;;;;;;4.80;3.20;;;22.60;99.90;;;;;;5089970;28;20573;-65
2021/06/14 08:55:50;;;;;;;7.30;4.20;;;22.70;98.10;;;;;;5090478;28;20922;-66
2021/06/14 08:58:17;;;;;;;8.80;3.80;;;22.70;99.90;;;;;;5090892;28;20449;-66
2021/06/14 09:00:44;;;;;;;6.93;3.77;;;22.80;99.30;;;;;;5090323;28;20536;-66
2021/06/14 09:03:11;;;;;;;4.33;3.23;;;22.90;98.40;;;;;;5090651;28;20452;-66
2021/06/14 09:05:38;;;;;;;4.50;2.90;;;23.00;97.40;;;;;;5089855;28;20476;-66
2021/06/14 09:08:08;;;;;;;4.33;3.40;;;23.20;98.10;;;;;;5090108;28;20461;-66
2021/06/14 09:10:37;;;;;;;7.83;3.43;;;23.30;97.60;;;;;;5089634;28;20446;-66
2021/06/14 09:13:13;;;;;;;5.87;4.07;;;23.40;96.70;;;;;;5089812;28;20999;-66
2021/06/14 09:15:41;;;;;;;7.67;3.33;;;23.60;94.10;;;;;;5078824;28;20458;-67
2021/06/14 09:18:22;;;;;;;6.53;3.73;;;23.50;97.00;;;;;;5084340;28;20441;-66
2021/06/14 09:21:11;;;;;;;6.13;3.90;;;23.60;96.40;;;;;;5091668;28;20450;-67
2021/06/14 09:23:46;;;;;;;8.13;4.07;;;23.80;96.50;;;;;;5085793;28;20450;-67
2021/06/14 09:26:31;;;;;;;4.80;3.27;;;23.80;94.00;;;;;;5091964;28;20438;-68
2021/06/14 09:29:01;;;;;;;6.07;3.50;;;23.70;94.10;;;;;;5091622;28;20534;-69
2021/06/14 09:31:36;;;;;;;5.53;3.50;;;23.90;95.50;;;;;;5090412;28;20540;-66
2021/06/14 09:34:03;;;;;;;4.47;3.60;;;24.20;95.30;;;;;;5085034;28;20573;-67
2021/06/14 09:36:30;;;;;;;5.00;3.37;;;24.30;95.00;;;;;;5090665;28;20454;-67
2021/06/14 09:39:08;;;;;;;4.80;3.13;;;24.50;92.40;;;;;;5089940;28;20454;-66
2021/06/14 09:41:40;;;;;;;4.67;2.87;;;24.50;92.10;;;;;;5088946;28;20456;-66
2021/06/14 09:44:06;;;;;;;5.63;2.93;;;24.50;92.60;;;;;;5086786;28;20477;-67
2021/06/14 09:46:36;;;;;;;3.67;2.70;;;24.60;92.20;;;;;;5090401;28;20562;-67
2021/06/14 09:49:04;;;;;;;5.60;3.47;;;24.70;90.70;;;;;;5087214;28;20453;-67
2021/06/14 09:51:32;;;;;;;6.43;3.17;;;24.80;92.30;;;;;;5082030;28;21051;-67
2021/06/14 09:54:00;;;;;;;4.73;3.17;;;24.90;90.20;;;;;;5090082;28;20492;-67
2021/06/14 09:56:32;;;;;;;4.77;2.77;;;25.00;92.00;;;;;;5090895;28;20477;-67
2021/06/14 09:59:00;;;;;;;5.30;3.10;;;25.10;90.00;;;;;;5090808;28;20454;-66
2021/06/14 10:01:28;;;;;;;5.13;2.80;;;25.60;90.40;;;;;;5090947;28;20476;-67
2021/06/14 10:03:57;;;;;;;4.80;3.10;;;26.10;86.40;;;;;;5091130;28;20491;-68
2021/06/14 10:06:29;;;;;;;4.73;2.77;;;26.80;88.50;;;;;;5073108;28;20466;-67
2021/06/14 10:08:56;;;;;;;4.80;2.93;;;27.90;86.50;;;;;;5084300;28;21028;-67
2021/06/14 10:11:23;;;;;;;3.80;2.40;;;28.40;80.00;;;;;;5090732;28;20450;-67
2021/06/14 10:13:51;;;;;;;4.40;2.83;;;28.90;75.10;;;;;;5079404;28;20569;-68
2021/06/14 10:16:24;;;;;;;3.87;2.90;;;29.30;72.80;;;;;;5078608;28;20508;-68
2021/06/14 10:18:54;;;;;;;3.90;2.70;;;29.60;73.60;;;;;;5076808;28;20903;-68
2021/06/14 10:21:26;;;;;;;4.20;2.60;;;30.20;75.30;;;;;;5078181;28;20469;-67
2021/06/14 10:23:55;;;;;;;3.37;2.30;;;30.80;69.70;;;;;;5084305;28;20468;-68
2021/06/14 10:26:23;;;;;;;4.30;2.30;;;31.10;67.70;;;;;;5087416;28;21046;-68
2021/06/14 10:28:52;;;;;;;3.13;2.27;;;31.00;63.70;;;;;;5088117;28;20947;-68
2021/06/14 10:31:20;;;;;;;3.20;2.20;;;30.90;61.40;;;;;;5083265;28;20431;-68
2021/06/14 10:33:48;;;;;;;4.00;2.60;;;31.20;58.70;;;;;;5087025;28;20947;-67
2021/06/14 10:36:16;;;;;;;3.70;2.77;;;31.10;64.10;;;;;;5088187;28;20456;-68
2021/06/14 10:38:45;;;;;;;3.57;2.23;;;31.10;61.50;;;;;;5081244;28;20458;-67
2021/06/14 10:41:12;;;;;;;6.73;2.90;;;31.30;60.20;;;;;;5078020;28;20962;-67
2021/06/14 10:43:40;;;;;;;3.43;2.30;;;31.20;60.70;;;;;;5086811;28;20486;-68
2021/06/14 10:46:12;;;;;;;4.10;2.10;;;31.60;60.60;;;;;;5084967;28;20470;-67
2021/06/14 10:48:40;;;;;;;3.63;2.30;;;31.80;58.30;;;;;;5088557;28;20465;-68
2021/06/14 10:51:13;;;;;;;4.10;2.20;;;32.10;59.90;;;;;;5087760;28;20454;-68
2021/06/14 10:53:50;;;;;;;4.07;2.40;;;31.90;55.90;;;;;;5088217;28;20545;-67
2021/06/14 10:56:19;;;;;;;3.53;2.50;;;31.80;55.20;;;;;;5087871;28;21121;-68
2021/06/14 10:58:56;;;;;;;4.87;3.00;;;31.70;55.20;;;;;;5087718;28;20446;-67
2021/06/14 11:01:32;;;;;;;5.90;2.67;;;31.50;53.40;;;;;;5088226;28;20477;-67
2021/06/14 11:04:00;;;;;;;3.80;2.47;;;32.00;57.10;;;;;;5087699;28;20450;-68
2021/06/14 11:06:29;;;;;;;4.07;2.20;;;32.60;54.40;;;;;;5088115;28;20540;-68
2021/06/14 11:09:10;;;;;;;4.50;2.50;;;32.80;53.90;;;;;;5087727;28;20511;-68
2021/06/14 11:11:49;;;;;;;3.33;2.20;;;32.80;53.90;;;;;;5087785;28;20533;-68
2021/06/14 11:14:27;;;;;;;3.40;2.20;;;33.00;53.10;;;;;;5087514;28;20486;-67
2021/06/14 11:16:59;;;;;;;4.00;2.17;;;32.90;53.30;;;;;;5087908;28;20446;-68
2021/06/14 11:19:35;;;;;;;3.20;2.10;;;33.10;53.80;;;;;;5081882;28;20462;-68
2021/06/14 11:22:02;;;;;;;4.57;2.60;;;33.30;53.60;;;;;;5087636;28;21243;-67
2021/06/14 11:24:34;;;;;;;3.20;2.20;;;33.30;51.60;;;;;;5088508;28;20501;-67
2021/06/14 11:27:01;;;;;;;4.33;2.50;;;33.10;49.30;;;;;;5087511;28;20891;-67
2021/06/14 11:29:28;;;;;;;2.93;2.23;;;33.00;49.90;;;;;;5088795;28;20956;-68
2021/06/14 11:32:01;;;;;;;3.77;2.57;;;33.10;50.60;;;;;;5088816;28;20830;-67
2021/06/14 11:34:37;;;;;;;3.37;2.20;;;33.30;53.70;;;;;;5087530;28;20512;-68
2021/06/14 11:37:06;;;;;;;5.07;2.80;;;33.50;51.80;;;;;;5087359;28;20449;-68
2021/06/14 11:39:33;;;;;;;6.47;2.70;;;33.60;50.40;;;;;;5087265;28;21211;-67
2021/06/14 11:42:09;;;;;;;6.57;2.87;;;33.50;49.60;;;;;;5086466;28;20448;-67
2021/06/14 11:44:36;;;;;;;5.13;2.20;;;33.30;48.70;;;;;;5081584;28;20476;-67
2021/06/14 11:47:15;;;;;;;3.27;2.00;;;33.40;50.30;;;;;;5089098;28;20448;-65
2021/06/14 11:49:44;;;;;;;3.60;2.00;;;33.90;47.60;;;;;;5082399;28;20454;-69
2021/06/14 11:52:19;;;;;;;3.83;2.30;;;34.10;50.60;;;;;;5082152;28;20453;-67
2021/06/14 11:54:48;;;;;;;4.20;2.80;;;33.90;48.00;;;;;;5082865;28;20488;-67
2021/06/14 11:57:15;;;;;;;4.40;2.43;;;33.70;50.20;;;;;;5080801;28;20528;-67
2021/06/14 11:59:42;;;;;;;4.77;2.50;;;34.10;50.20;;;;;;5085205;28;20534;-67
2021/06/14 12:02:21;;;;;;;3.70;2.30;;;33.70;48.30;;;;;;5085578;28;20485;-67
2021/06/14 12:04:55;;;;;;;3.87;2.60;;;34.10;50.80;;;;;;5088346;28;20548;-67
2021/06/14 12:07:33;;;;;;;4.13;2.73;;;34.40;55.00;;;;;;5089434;28;20450;-67
2021/06/14 12:10:03;;;;;;;4.53;2.33;;;34.90;49.70;;;;;;5089077;28;20481;-67
2021/06/14 12:12:31;;;;;;;4.20;2.23;;;35.00;51.50;;;;;;5087528;28;20438;-67
2021/06/14 12:14:58;;;;;;;6.00;2.83;;;35.00;50.30;;;;;;5082252;28;20484;-67
2021/06/14 12:17:32;;;;;;;3.87;2.20;;;34.20;47.60;;;;;;5089437;28;20484;-67
2021/06/14 12:19:59;;;;;;;4.87;2.37;;;34.00;46.80;;;;;;5082460;28;20478;-66
2021/06/14 12:22:28;;;;;;;4.97;2.60;;;33.80;47.20;;;;;;5080976;28;20454;-65
2021/06/14 12:25:01;;;;;;;4.63;2.40;;;32.50;46.10;;;;;;5080257;28;20464;-66
2021/06/14 12:27:28;;;;;;;4.23;2.83;;;32.00;51.30;;;;;;5080670;28;20442;-67
2021/06/14 12:29:59;;;;;;;5.83;3.00;;;32.70;53.80;;;;;;5081723;28;20491;-66
2021/06/14 12:32:28;;;;;;;7.73;2.90;;;33.30;49.30;;;;;;5081439;28;20522;-66
2021/06/14 12:34:59;;;;;;;4.30;2.13;;;34.30;51.40;;;;;;5082609;28;20490;-66
2021/06/14 12:37:26;;;;;;;5.03;2.03;;;34.90;48.80;;;;;;5092058;28;20457;-65
2021/06/14 12:39:58;;;;;;;3.37;1.93;;;35.40;48.40;;;;;;5089424;28;20815;-66
2021/06/14 12:42:25;;;;;;;3.37;2.03;;;35.40;44.20;;;;;;5087511;28;20526;-65
2021/06/14 12:44:56;;;;;;;6.53;2.87;;;35.00;47.70;;;;;;5086802;28;20854;-67
2021/06/14 12:47:24;;;;;;;3.70;2.33;;;35.30;50.00;;;;;;5092386;28;20548;-66
2021/06/14 12:49:52;;;;;;;3.83;2.00;;;35.80;49.30;;;;;;5091613;28;20450;-67
2021/06/14 12:52:21;;;;;;;3.30;2.17;;;36.00;47.10;;;;;;5092040;28;20457;-66
2021/06/14 12:54:49;;;;;;;5.17;2.10;;;36.00;48.60;;;;;;5091831;28;20477;-66
2021/06/14 12:57:16;;;;;;;3.20;2.20;;;36.30;47.10;;;;;;5084809;28;20446;-67